sensor_id;sensor_type;location;lat;lon;timestamp;P1;durP1;ratioP1;P2;durP2;ratioP2
5153;SDS011;2595;53.584;10.084;2023-02-21T00:02:09;2.67;;;1.93;;
5153;SDS011;2595;53.584;10.084;2023-02-21T00:04:54;3.07;;;1.50;;
5153;SDS011;2595;53.584;10.084;2023-02-21T00:07:38;1.90;;;1.80;;
5153;SDS011;2595;53.584;10.084;2023-02-21T00:10:22;1.70;;;1.60;;
5153;SDS011;2595;53.584;10.084;2023-02-21T00:13:06;3.37;;;1.70;;
5153;SDS011;2595;53.584;10.084;2023-02-21T00:15:51;1.70;;;1.60;;
5153;SDS011;2595;53.584;10.084;2023-02-21T00:18:35;6.03;;;2.40;;
5153;SDS011;2595;53.584;10.084;2023-02-21T00:21:23;6.17;;;1.70;;
5153;SDS011;2595;53.584;10.084;2023-02-21T00:24:11;1.80;;;1.70;;
5153;SDS011;2595;53.584;10.084;2023-02-21T00:26:57;2.67;;;1.53;;
5153;SDS011;2595;53.584;10.084;2023-02-21T00:29:45;1.57;;;1.47;;
5153;SDS011;2595;53.584;10.084;2023-02-21T00:32:30;1.60;;;1.50;;
5153;SDS011;2595;53.584;10.084;2023-02-21T00:35:14;1.30;;;1.20;;
5153;SDS011;2595;53.584;10.084;2023-02-21T00:37:58;1.40;;;1.30;;
5153;SDS011;2595;53.584;10.084;2023-02-21T00:40:42;1.40;;;1.30;;
5153;SDS011;2595;53.584;10.084;2023-02-21T00:43:30;1.93;;;1.33;;
5153;SDS011;2595;53.584;10.084;2023-02-21T00:46:17;1.50;;;1.30;;
5153;SDS011;2595;53.584;10.084;2023-02-21T00:49:03;1.90;;;1.30;;
5153;SDS011;2595;53.584;10.084;2023-02-21T00:51:47;1.33;;;1.00;;
5153;SDS011;2595;53.584;10.084;2023-02-21T00:54:32;1.30;;;1.20;;
5153;SDS011;2595;53.584;10.084;2023-02-21T00:57:17;1.27;;;1.10;;
5153;SDS011;2595;53.584;10.084;2023-02-21T01:00:00;2.07;;;0.90;;
5153;SDS011;2595;53.584;10.084;2023-02-21T01:02:46;1.17;;;1.07;;
5153;SDS011;2595;53.584;10.084;2023-02-21T01:05:29;1.30;;;1.10;;
5153;SDS011;2595;53.584;10.084;2023-02-21T01:08:14;1.30;;;1.20;;
5153;SDS011;2595;53.584;10.084;2023-02-21T01:10:57;1.03;;;1.00;;
5153;SDS011;2595;53.584;10.084;2023-02-21T01:13:42;1.47;;;1.20;;
5153;SDS011;2595;53.584;10.084;2023-02-21T01:16:27;1.20;;;1.10;;
5153;SDS011;2595;53.584;10.084;2023-02-21T01:19:12;1.10;;;1.00;;
5153;SDS011;2595;53.584;10.084;2023-02-21T01:21:56;1.13;;;1.03;;
5153;SDS011;2595;53.584;10.084;2023-02-21T01:24:40;1.67;;;1.07;;
5153;SDS011;2595;53.584;10.084;2023-02-21T01:27:24;2.20;;;1.10;;
5153;SDS011;2595;53.584;10.084;2023-02-21T01:30:08;1.00;;;1.00;;
5153;SDS011;2595;53.584;10.084;2023-02-21T01:32:53;2.07;;;1.17;;
5153;SDS011;2595;53.584;10.084;2023-02-21T01:35:37;1.00;;;0.90;;
5153;SDS011;2595;53.584;10.084;2023-02-21T01:38:24;1.50;;;0.93;;
5153;SDS011;2595;53.584;10.084;2023-02-21T01:41:08;1.03;;;0.97;;
5153;SDS011;2595;53.584;10.084;2023-02-21T01:43:57;3.07;;;1.10;;
5153;SDS011;2595;53.584;10.084;2023-02-21T01:46:42;1.10;;;1.00;;
5153;SDS011;2595;53.584;10.084;2023-02-21T01:49:26;1.00;;;1.00;;
5153;SDS011;2595;53.584;10.084;2023-02-21T01:52:12;0.87;;;0.83;;
5153;SDS011;2595;53.584;10.084;2023-02-21T01:54:56;1.23;;;1.13;;
5153;SDS011;2595;53.584;10.084;2023-02-21T01:57:41;1.17;;;1.07;;
5153;SDS011;2595;53.584;10.084;2023-02-21T02:00:28;1.40;;;1.20;;
5153;SDS011;2595;53.584;10.084;2023-02-21T02:03:14;1.97;;;1.37;;
5153;SDS011;2595;53.584;10.084;2023-02-21T02:06:00;0.90;;;0.90;;
5153;SDS011;2595;53.584;10.084;2023-02-21T02:08:47;1.10;;;1.00;;
5153;SDS011;2595;53.584;10.084;2023-02-21T02:30:23;1.73;;;1.10;;
5153;SDS011;2595;53.584;10.084;2023-02-21T02:46:42;1.47;;;1.40;;
5153;SDS011;2595;53.584;10.084;2023-02-21T02:49:15;1.43;;;1.33;;
5153;SDS011;2595;53.584;10.084;2023-02-21T02:51:44;1.57;;;1.00;;
5153;SDS011;2595;53.584;10.084;2023-02-21T02:54:11;1.00;;;0.90;;
5153;SDS011;2595;53.584;10.084;2023-02-21T02:56:36;1.20;;;1.20;;
5153;SDS011;2595;53.584;10.084;2023-02-21T03:01:35;0.97;;;0.90;;
5153;SDS011;2595;53.584;10.084;2023-02-21T03:04:36;3.70;;;1.10;;
5153;SDS011;2595;53.584;10.084;2023-02-21T03:10:17;1.87;;;0.97;;
5153;SDS011;2595;53.584;10.084;2023-02-21T03:15:46;0.90;;;0.80;;
5153;SDS011;2595;53.584;10.084;2023-02-21T03:21:18;0.80;;;0.73;;
5153;SDS011;2595;53.584;10.084;2023-02-21T03:23:47;1.00;;;1.00;;
5153;SDS011;2595;53.584;10.084;2023-02-21T03:26:15;0.83;;;0.80;;
5153;SDS011;2595;53.584;10.084;2023-02-21T03:28:42;1.50;;;0.87;;
5153;SDS011;2595;53.584;10.084;2023-02-21T03:31:08;2.23;;;0.90;;
5153;SDS011;2595;53.584;10.084;2023-02-21T03:33:36;1.53;;;0.90;;
5153;SDS011;2595;53.584;10.084;2023-02-21T03:36:03;1.13;;;1.03;;
5153;SDS011;2595;53.584;10.084;2023-02-21T03:38:30;1.03;;;1.00;;
5153;SDS011;2595;53.584;10.084;2023-02-21T03:40:56;1.30;;;1.20;;
5153;SDS011;2595;53.584;10.084;2023-02-21T03:43:22;1.20;;;1.00;;
5153;SDS011;2595;53.584;10.084;2023-02-21T03:45:47;1.53;;;1.40;;
5153;SDS011;2595;53.584;10.084;2023-02-21T03:48:13;1.60;;;1.50;;
5153;SDS011;2595;53.584;10.084;2023-02-21T03:50:39;2.37;;;1.67;;
5153;SDS011;2595;53.584;10.084;2023-02-21T03:53:04;2.20;;;2.10;;
5153;SDS011;2595;53.584;10.084;2023-02-21T03:55:30;2.10;;;2.00;;
5153;SDS011;2595;53.584;10.084;2023-02-21T03:57:55;2.10;;;2.00;;
5153;SDS011;2595;53.584;10.084;2023-02-21T04:00:21;2.47;;;2.03;;
5153;SDS011;2595;53.584;10.084;2023-02-21T04:02:47;2.93;;;2.60;;
5153;SDS011;2595;53.584;10.084;2023-02-21T04:05:12;3.40;;;3.00;;
5153;SDS011;2595;53.584;10.084;2023-02-21T04:07:38;3.07;;;2.80;;
5153;SDS011;2595;53.584;10.084;2023-02-21T04:10:04;3.00;;;2.23;;
5153;SDS011;2595;53.584;10.084;2023-02-21T04:12:29;2.20;;;2.10;;
5153;SDS011;2595;53.584;10.084;2023-02-21T04:14:55;2.40;;;2.30;;
5153;SDS011;2595;53.584;10.084;2023-02-21T04:17:22;2.13;;;2.03;;
5153;SDS011;2595;53.584;10.084;2023-02-21T04:19:48;1.90;;;1.80;;
5153;SDS011;2595;53.584;10.084;2023-02-21T04:22:13;2.90;;;2.70;;
5153;SDS011;2595;53.584;10.084;2023-02-21T04:24:39;2.10;;;2.00;;
5153;SDS011;2595;53.584;10.084;2023-02-21T04:27:05;2.40;;;2.20;;
5153;SDS011;2595;53.584;10.084;2023-02-21T04:29:30;3.10;;;2.60;;
5153;SDS011;2595;53.584;10.084;2023-02-21T04:31:56;2.67;;;2.47;;
5153;SDS011;2595;53.584;10.084;2023-02-21T04:34:21;2.80;;;2.67;;
5153;SDS011;2595;53.584;10.084;2023-02-21T04:36:47;2.70;;;2.30;;
5153;SDS011;2595;53.584;10.084;2023-02-21T04:39:13;2.67;;;2.57;;
5153;SDS011;2595;53.584;10.084;2023-02-21T04:41:38;2.53;;;2.33;;
5153;SDS011;2595;53.584;10.084;2023-02-21T04:44:04;3.10;;;1.80;;
5153;SDS011;2595;53.584;10.084;2023-02-21T04:46:30;3.77;;;2.60;;
5153;SDS011;2595;53.584;10.084;2023-02-21T04:48:56;5.03;;;2.60;;
5153;SDS011;2595;53.584;10.084;2023-02-21T04:51:22;5.20;;;2.10;;
5153;SDS011;2595;53.584;10.084;2023-02-21T04:53:49;9.37;;;2.50;;
5153;SDS011;2595;53.584;10.084;2023-02-21T04:56:17;7.87;;;2.33;;
5153;SDS011;2595;53.584;10.084;2023-02-21T04:58:44;2.97;;;1.67;;
5153;SDS011;2595;53.584;10.084;2023-02-21T05:01:10;5.90;;;2.00;;
5153;SDS011;2595;53.584;10.084;2023-02-21T05:03:36;9.03;;;1.87;;
5153;SDS011;2595;53.584;10.084;2023-02-21T05:06:02;9.77;;;1.97;;
5153;SDS011;2595;53.584;10.084;2023-02-21T05:08:28;13.00;;;2.43;;
5153;SDS011;2595;53.584;10.084;2023-02-21T05:10:53;3.23;;;2.50;;
5153;SDS011;2595;53.584;10.084;2023-02-21T05:13:20;6.33;;;2.00;;
5153;SDS011;2595;53.584;10.084;2023-02-21T05:15:46;10.57;;;2.53;;
5153;SDS011;2595;53.584;10.084;2023-02-21T05:18:12;10.93;;;3.03;;
5153;SDS011;2595;53.584;10.084;2023-02-21T05:20:38;4.10;;;2.73;;
5153;SDS011;2595;53.584;10.084;2023-02-21T05:23:03;3.37;;;1.73;;
5153;SDS011;2595;53.584;10.084;2023-02-21T05:25:29;5.73;;;3.17;;
5153;SDS011;2595;53.584;10.084;2023-02-21T05:27:54;11.00;;;2.70;;
5153;SDS011;2595;53.584;10.084;2023-02-21T05:30:21;8.50;;;2.10;;
5153;SDS011;2595;53.584;10.084;2023-02-21T05:32:50;10.83;;;2.53;;
5153;SDS011;2595;53.584;10.084;2023-02-21T05:35:15;7.33;;;2.70;;
5153;SDS011;2595;53.584;10.084;2023-02-21T05:37:41;8.57;;;2.67;;
5153;SDS011;2595;53.584;10.084;2023-02-21T05:40:40;7.77;;;2.40;;
5153;SDS011;2595;53.584;10.084;2023-02-21T05:43:00;14.43;;;2.50;;
5153;SDS011;2595;53.584;10.084;2023-02-21T05:45:25;16.20;;;3.77;;
5153;SDS011;2595;53.584;10.084;2023-02-21T05:47:51;9.00;;;2.10;;
5153;SDS011;2595;53.584;10.084;2023-02-21T05:50:20;7.50;;;2.50;;
5153;SDS011;2595;53.584;10.084;2023-02-21T05:52:45;7.50;;;2.77;;
5153;SDS011;2595;53.584;10.084;2023-02-21T05:55:11;6.33;;;2.90;;
5153;SDS011;2595;53.584;10.084;2023-02-21T05:57:37;6.23;;;2.67;;
5153;SDS011;2595;53.584;10.084;2023-02-21T06:00:03;11.23;;;2.77;;
5153;SDS011;2595;53.584;10.084;2023-02-21T06:02:30;7.90;;;2.87;;
5153;SDS011;2595;53.584;10.084;2023-02-21T06:04:55;7.20;;;3.43;;
5153;SDS011;2595;53.584;10.084;2023-02-21T06:07:21;11.73;;;2.73;;
5153;SDS011;2595;53.584;10.084;2023-02-21T06:09:46;12.87;;;3.90;;
5153;SDS011;2595;53.584;10.084;2023-02-21T06:12:12;6.60;;;2.50;;
5153;SDS011;2595;53.584;10.084;2023-02-21T06:14:38;11.00;;;2.67;;
5153;SDS011;2595;53.584;10.084;2023-02-21T06:17:03;4.33;;;2.50;;
5153;SDS011;2595;53.584;10.084;2023-02-21T06:19:29;7.50;;;3.30;;
5153;SDS011;2595;53.584;10.084;2023-02-21T06:21:54;7.33;;;2.93;;
5153;SDS011;2595;53.584;10.084;2023-02-21T06:24:20;8.77;;;2.80;;
5153;SDS011;2595;53.584;10.084;2023-02-21T06:26:45;6.53;;;2.80;;
5153;SDS011;2595;53.584;10.084;2023-02-21T06:29:11;14.23;;;3.13;;
5153;SDS011;2595;53.584;10.084;2023-02-21T06:31:37;3.50;;;2.47;;
5153;SDS011;2595;53.584;10.084;2023-02-21T06:34:03;15.73;;;2.90;;
5153;SDS011;2595;53.584;10.084;2023-02-21T06:36:29;4.90;;;2.70;;
5153;SDS011;2595;53.584;10.084;2023-02-21T06:38:55;14.97;;;2.80;;
5153;SDS011;2595;53.584;10.084;2023-02-21T06:41:25;23.63;;;4.07;;
5153;SDS011;2595;53.584;10.084;2023-02-21T06:43:53;7.73;;;2.77;;
5153;SDS011;2595;53.584;10.084;2023-02-21T06:46:21;14.00;;;2.90;;
5153;SDS011;2595;53.584;10.084;2023-02-21T06:48:48;16.17;;;2.60;;
5153;SDS011;2595;53.584;10.084;2023-02-21T06:51:14;11.90;;;2.63;;
5153;SDS011;2595;53.584;10.084;2023-02-21T06:53:41;15.33;;;3.10;;
5153;SDS011;2595;53.584;10.084;2023-02-21T06:56:07;7.43;;;2.43;;
5153;SDS011;2595;53.584;10.084;2023-02-21T06:58:33;16.33;;;2.50;;
5153;SDS011;2595;53.584;10.084;2023-02-21T07:00:59;11.20;;;3.57;;
5153;SDS011;2595;53.584;10.084;2023-02-21T07:03:25;20.60;;;3.70;;
5153;SDS011;2595;53.584;10.084;2023-02-21T07:05:50;14.70;;;3.07;;
5153;SDS011;2595;53.584;10.084;2023-02-21T07:08:17;10.27;;;2.90;;
5153;SDS011;2595;53.584;10.084;2023-02-21T07:10:43;6.50;;;2.60;;
5153;SDS011;2595;53.584;10.084;2023-02-21T07:13:08;7.63;;;2.37;;
5153;SDS011;2595;53.584;10.084;2023-02-21T07:15:34;15.23;;;3.90;;
5153;SDS011;2595;53.584;10.084;2023-02-21T07:17:59;8.60;;;2.37;;
5153;SDS011;2595;53.584;10.084;2023-02-21T07:20:25;7.20;;;3.20;;
5153;SDS011;2595;53.584;10.084;2023-02-21T07:22:51;11.30;;;3.20;;
5153;SDS011;2595;53.584;10.084;2023-02-21T07:25:17;7.77;;;2.80;;
5153;SDS011;2595;53.584;10.084;2023-02-21T07:27:45;11.50;;;3.20;;
5153;SDS011;2595;53.584;10.084;2023-02-21T07:30:12;10.90;;;3.03;;
5153;SDS011;2595;53.584;10.084;2023-02-21T07:32:37;21.33;;;2.90;;
5153;SDS011;2595;53.584;10.084;2023-02-21T07:35:04;5.90;;;3.93;;
5153;SDS011;2595;53.584;10.084;2023-02-21T07:37:30;14.37;;;3.30;;
5153;SDS011;2595;53.584;10.084;2023-02-21T07:39:56;7.80;;;2.97;;
5153;SDS011;2595;53.584;10.084;2023-02-21T07:42:21;11.47;;;3.73;;
5153;SDS011;2595;53.584;10.084;2023-02-21T07:44:47;14.60;;;2.70;;
5153;SDS011;2595;53.584;10.084;2023-02-21T07:47:12;12.47;;;3.90;;
5153;SDS011;2595;53.584;10.084;2023-02-21T07:49:39;10.07;;;3.30;;
5153;SDS011;2595;53.584;10.084;2023-02-21T07:52:05;7.43;;;3.30;;
5153;SDS011;2595;53.584;10.084;2023-02-21T07:54:31;19.73;;;3.53;;
5153;SDS011;2595;53.584;10.084;2023-02-21T07:56:57;10.30;;;2.37;;
5153;SDS011;2595;53.584;10.084;2023-02-21T07:59:22;8.67;;;3.30;;
5153;SDS011;2595;53.584;10.084;2023-02-21T08:01:48;13.10;;;2.90;;
5153;SDS011;2595;53.584;10.084;2023-02-21T08:04:14;10.07;;;3.20;;
5153;SDS011;2595;53.584;10.084;2023-02-21T08:06:45;12.37;;;3.87;;
5153;SDS011;2595;53.584;10.084;2023-02-21T08:09:11;8.20;;;3.33;;
5153;SDS011;2595;53.584;10.084;2023-02-21T08:11:37;11.70;;;2.70;;
5153;SDS011;2595;53.584;10.084;2023-02-21T08:14:04;7.27;;;2.97;;
5153;SDS011;2595;53.584;10.084;2023-02-21T08:16:30;14.20;;;3.03;;
5153;SDS011;2595;53.584;10.084;2023-02-21T08:18:56;13.20;;;3.57;;
5153;SDS011;2595;53.584;10.084;2023-02-21T08:21:21;19.33;;;4.87;;
5153;SDS011;2595;53.584;10.084;2023-02-21T08:23:47;10.80;;;3.27;;
5153;SDS011;2595;53.584;10.084;2023-02-21T08:26:15;11.90;;;3.10;;
5153;SDS011;2595;53.584;10.084;2023-02-21T08:28:41;9.00;;;2.63;;
5153;SDS011;2595;53.584;10.084;2023-02-21T08:31:06;20.87;;;4.20;;
5153;SDS011;2595;53.584;10.084;2023-02-21T08:33:32;11.63;;;2.83;;
5153;SDS011;2595;53.584;10.084;2023-02-21T08:35:58;7.43;;;3.40;;
5153;SDS011;2595;53.584;10.084;2023-02-21T08:38:23;7.67;;;3.10;;
5153;SDS011;2595;53.584;10.084;2023-02-21T08:40:49;8.13;;;2.90;;
5153;SDS011;2595;53.584;10.084;2023-02-21T08:43:15;11.97;;;3.50;;
5153;SDS011;2595;53.584;10.084;2023-02-21T08:45:41;4.90;;;2.57;;
5153;SDS011;2595;53.584;10.084;2023-02-21T08:48:06;9.83;;;3.50;;
5153;SDS011;2595;53.584;10.084;2023-02-21T08:50:32;8.00;;;3.53;;
5153;SDS011;2595;53.584;10.084;2023-02-21T08:52:58;11.47;;;3.17;;
5153;SDS011;2595;53.584;10.084;2023-02-21T08:55:23;10.17;;;2.90;;
5153;SDS011;2595;53.584;10.084;2023-02-21T08:57:50;21.53;;;3.47;;
5153;SDS011;2595;53.584;10.084;2023-02-21T09:00:17;9.67;;;3.23;;
5153;SDS011;2595;53.584;10.084;2023-02-21T09:02:47;22.60;;;3.87;;
5153;SDS011;2595;53.584;10.084;2023-02-21T09:05:17;15.67;;;4.67;;
5153;SDS011;2595;53.584;10.084;2023-02-21T09:07:48;7.53;;;3.10;;
5153;SDS011;2595;53.584;10.084;2023-02-21T09:10:16;13.60;;;3.00;;
5153;SDS011;2595;53.584;10.084;2023-02-21T09:12:42;15.33;;;4.03;;
5153;SDS011;2595;53.584;10.084;2023-02-21T09:15:08;7.83;;;2.63;;
5153;SDS011;2595;53.584;10.084;2023-02-21T09:17:34;10.63;;;3.13;;
5153;SDS011;2595;53.584;10.084;2023-02-21T09:20:00;13.70;;;3.13;;
5153;SDS011;2595;53.584;10.084;2023-02-21T09:22:29;18.00;;;3.03;;
5153;SDS011;2595;53.584;10.084;2023-02-21T09:24:55;3.93;;;2.17;;
5153;SDS011;2595;53.584;10.084;2023-02-21T09:27:21;6.50;;;2.70;;
5153;SDS011;2595;53.584;10.084;2023-02-21T09:30:00;14.77;;;3.27;;
5153;SDS011;2595;53.584;10.084;2023-02-21T09:32:30;12.50;;;3.13;;
5153;SDS011;2595;53.584;10.084;2023-02-21T09:34:56;10.53;;;3.07;;
5153;SDS011;2595;53.584;10.084;2023-02-21T09:37:22;6.40;;;3.00;;
5153;SDS011;2595;53.584;10.084;2023-02-21T09:39:47;21.73;;;3.37;;
5153;SDS011;2595;53.584;10.084;2023-02-21T09:42:14;12.80;;;3.00;;
5153;SDS011;2595;53.584;10.084;2023-02-21T09:44:42;7.97;;;2.60;;
5153;SDS011;2595;53.584;10.084;2023-02-21T09:47:09;13.13;;;3.30;;
5153;SDS011;2595;53.584;10.084;2023-02-21T09:50:03;5.80;;;2.50;;
5153;SDS011;2595;53.584;10.084;2023-02-21T09:52:33;11.57;;;2.90;;
5153;SDS011;2595;53.584;10.084;2023-02-21T09:55:12;5.60;;;3.70;;
5153;SDS011;2595;53.584;10.084;2023-02-21T09:57:44;13.90;;;3.40;;
5153;SDS011;2595;53.584;10.084;2023-02-21T10:00:55;8.50;;;2.60;;
5153;SDS011;2595;53.584;10.084;2023-02-21T10:05:42;9.93;;;2.90;;
5153;SDS011;2595;53.584;10.084;2023-02-21T10:13:44;13.40;;;3.33;;
5153;SDS011;2595;53.584;10.084;2023-02-21T10:16:22;14.20;;;2.67;;
5153;SDS011;2595;53.584;10.084;2023-02-21T10:19:02;7.33;;;2.90;;
5153;SDS011;2595;53.584;10.084;2023-02-21T10:21:37;6.07;;;2.67;;
5153;SDS011;2595;53.584;10.084;2023-02-21T10:24:11;8.53;;;2.90;;
5153;SDS011;2595;53.584;10.084;2023-02-21T10:26:39;14.97;;;3.23;;
5153;SDS011;2595;53.584;10.084;2023-02-21T10:29:34;7.27;;;2.53;;
5153;SDS011;2595;53.584;10.084;2023-02-21T10:32:07;4.63;;;2.70;;
5153;SDS011;2595;53.584;10.084;2023-02-21T10:34:34;18.73;;;3.50;;
5153;SDS011;2595;53.584;10.084;2023-02-21T10:37:09;7.33;;;2.30;;
5153;SDS011;2595;53.584;10.084;2023-02-21T10:39:48;9.73;;;2.00;;
5153;SDS011;2595;53.584;10.084;2023-02-21T10:42:19;6.57;;;3.20;;
5153;SDS011;2595;53.584;10.084;2023-02-21T10:44:51;8.27;;;2.43;;
5153;SDS011;2595;53.584;10.084;2023-02-21T10:47:18;10.00;;;2.53;;
5153;SDS011;2595;53.584;10.084;2023-02-21T10:50:00;13.93;;;2.70;;
5153;SDS011;2595;53.584;10.084;2023-02-21T10:52:35;9.20;;;3.20;;
5153;SDS011;2595;53.584;10.084;2023-02-21T10:55:04;10.90;;;2.60;;
5153;SDS011;2595;53.584;10.084;2023-02-21T10:57:38;8.60;;;3.23;;
5153;SDS011;2595;53.584;10.084;2023-02-21T11:00:07;11.80;;;2.73;;
5153;SDS011;2595;53.584;10.084;2023-02-21T11:02:35;11.50;;;2.60;;
5153;SDS011;2595;53.584;10.084;2023-02-21T11:05:14;12.93;;;3.10;;
5153;SDS011;2595;53.584;10.084;2023-02-21T11:08:05;11.53;;;2.93;;
5153;SDS011;2595;53.584;10.084;2023-02-21T11:10:41;10.73;;;4.20;;
5153;SDS011;2595;53.584;10.084;2023-02-21T11:13:15;9.27;;;2.67;;
5153;SDS011;2595;53.584;10.084;2023-02-21T11:15:44;8.13;;;3.33;;
5153;SDS011;2595;53.584;10.084;2023-02-21T11:18:14;7.97;;;2.77;;
5153;SDS011;2595;53.584;10.084;2023-02-21T11:20:40;15.90;;;3.30;;
5153;SDS011;2595;53.584;10.084;2023-02-21T11:23:23;5.33;;;2.27;;
5153;SDS011;2595;53.584;10.084;2023-02-21T11:26:12;13.20;;;2.53;;
5153;SDS011;2595;53.584;10.084;2023-02-21T11:28:39;9.70;;;2.37;;
5153;SDS011;2595;53.584;10.084;2023-02-21T11:33:59;5.23;;;2.47;;
5153;SDS011;2595;53.584;10.084;2023-02-21T11:36:30;9.40;;;2.10;;
5153;SDS011;2595;53.584;10.084;2023-02-21T11:52:45;13.07;;;2.37;;
5153;SDS011;2595;53.584;10.084;2023-02-21T11:55:20;4.13;;;1.80;;
5153;SDS011;2595;53.584;10.084;2023-02-21T11:58:13;5.53;;;2.50;;
5153;SDS011;2595;53.584;10.084;2023-02-21T12:06:34;5.73;;;2.30;;
5153;SDS011;2595;53.584;10.084;2023-02-21T12:09:12;8.40;;;2.30;;
5153;SDS011;2595;53.584;10.084;2023-02-21T12:23:02;4.83;;;1.70;;
5153;SDS011;2595;53.584;10.084;2023-02-21T12:28:35;3.30;;;2.70;;
5153;SDS011;2595;53.584;10.084;2023-02-21T12:31:14;6.43;;;2.27;;
5153;SDS011;2595;53.584;10.084;2023-02-21T12:36:54;7.13;;;2.47;;
5153;SDS011;2595;53.584;10.084;2023-02-21T12:42:33;3.90;;;1.73;;
5153;SDS011;2595;53.584;10.084;2023-02-21T12:50:40;5.53;;;1.80;;
5153;SDS011;2595;53.584;10.084;2023-02-21T12:53:12;4.77;;;2.20;;
5153;SDS011;2595;53.584;10.084;2023-02-21T12:55:43;4.33;;;1.63;;
5153;SDS011;2595;53.584;10.084;2023-02-21T12:58:20;8.57;;;2.10;;
5153;SDS011;2595;53.584;10.084;2023-02-21T13:04:09;11.80;;;3.20;;
5153;SDS011;2595;53.584;10.084;2023-02-21T13:06:56;4.30;;;2.30;;
5153;SDS011;2595;53.584;10.084;2023-02-21T13:15:32;9.70;;;3.57;;
5153;SDS011;2595;53.584;10.084;2023-02-21T13:18:00;4.20;;;1.93;;
5153;SDS011;2595;53.584;10.084;2023-02-21T13:20:36;3.00;;;2.10;;
5153;SDS011;2595;53.584;10.084;2023-02-21T13:23:47;6.60;;;2.20;;
5153;SDS011;2595;53.584;10.084;2023-02-21T13:28:55;10.70;;;2.70;;
5153;SDS011;2595;53.584;10.084;2023-02-21T13:31:32;5.27;;;2.43;;
5153;SDS011;2595;53.584;10.084;2023-02-21T13:34:04;7.73;;;2.80;;
5153;SDS011;2595;53.584;10.084;2023-02-21T13:39:16;9.47;;;2.17;;
5153;SDS011;2595;53.584;10.084;2023-02-21T13:46:59;7.40;;;2.40;;
5153;SDS011;2595;53.584;10.084;2023-02-21T13:49:35;2.53;;;2.00;;
5153;SDS011;2595;53.584;10.084;2023-02-21T13:57:42;5.77;;;3.00;;
5153;SDS011;2595;53.584;10.084;2023-02-21T14:05:18;12.80;;;2.83;;
5153;SDS011;2595;53.584;10.084;2023-02-21T14:07:45;11.40;;;3.03;;
5153;SDS011;2595;53.584;10.084;2023-02-21T14:10:16;5.20;;;2.23;;
5153;SDS011;2595;53.584;10.084;2023-02-21T14:15:50;2.20;;;1.87;;
5153;SDS011;2595;53.584;10.084;2023-02-21T14:21:01;5.20;;;2.13;;
5153;SDS011;2595;53.584;10.084;2023-02-21T14:23:49;6.10;;;2.00;;
5153;SDS011;2595;53.584;10.084;2023-02-21T14:27:01;3.50;;;2.07;;
5153;SDS011;2595;53.584;10.084;2023-02-21T14:29:11;2.13;;;1.77;;
5153;SDS011;2595;53.584;10.084;2023-02-21T14:31:49;4.07;;;2.40;;
5153;SDS011;2595;53.584;10.084;2023-02-21T14:36:56;5.43;;;2.17;;
5153;SDS011;2595;53.584;10.084;2023-02-21T14:39:29;7.90;;;2.10;;
5153;SDS011;2595;53.584;10.084;2023-02-21T14:42:16;6.10;;;3.40;;
5153;SDS011;2595;53.584;10.084;2023-02-21T14:47:53;4.60;;;1.87;;
5153;SDS011;2595;53.584;10.084;2023-02-21T14:50:42;9.53;;;2.83;;
5153;SDS011;2595;53.584;10.084;2023-02-21T14:59:01;4.80;;;2.10;;
5153;SDS011;2595;53.584;10.084;2023-02-21T15:02:37;4.03;;;1.67;;
5153;SDS011;2595;53.584;10.084;2023-02-21T15:10:30;3.50;;;1.70;;
5153;SDS011;2595;53.584;10.084;2023-02-21T15:13:03;3.00;;;1.43;;
5153;SDS011;2595;53.584;10.084;2023-02-21T15:15:34;7.73;;;2.17;;
5153;SDS011;2595;53.584;10.084;2023-02-21T15:20:31;11.30;;;1.80;;
5153;SDS011;2595;53.584;10.084;2023-02-21T15:23:06;4.60;;;3.20;;
5153;SDS011;2595;53.584;10.084;2023-02-21T15:25:43;5.57;;;2.93;;
5153;SDS011;2595;53.584;10.084;2023-02-21T15:28:20;2.40;;;1.60;;
5153;SDS011;2595;53.584;10.084;2023-02-21T15:30:59;3.43;;;1.60;;
5153;SDS011;2595;53.584;10.084;2023-02-21T15:33:29;4.70;;;1.90;;
5153;SDS011;2595;53.584;10.084;2023-02-21T15:36:02;9.33;;;2.10;;
5153;SDS011;2595;53.584;10.084;2023-02-21T15:38:42;12.03;;;2.20;;
5153;SDS011;2595;53.584;10.084;2023-02-21T15:41:22;4.60;;;1.70;;
5153;SDS011;2595;53.584;10.084;2023-02-21T15:46:42;3.87;;;1.80;;
5153;SDS011;2595;53.584;10.084;2023-02-21T15:49:13;3.50;;;2.43;;
5153;SDS011;2595;53.584;10.084;2023-02-21T15:51:44;4.83;;;1.70;;
5153;SDS011;2595;53.584;10.084;2023-02-21T15:54:31;10.70;;;2.80;;
5153;SDS011;2595;53.584;10.084;2023-02-21T15:57:00;8.30;;;1.80;;
5153;SDS011;2595;53.584;10.084;2023-02-21T15:59:29;3.23;;;1.93;;
5153;SDS011;2595;53.584;10.084;2023-02-21T16:04:40;2.43;;;1.90;;
5153;SDS011;2595;53.584;10.084;2023-02-21T16:07:18;5.83;;;2.10;;
5153;SDS011;2595;53.584;10.084;2023-02-21T16:09:50;5.30;;;2.20;;
5153;SDS011;2595;53.584;10.084;2023-02-21T16:14:56;6.30;;;1.87;;
5153;SDS011;2595;53.584;10.084;2023-02-21T16:22:43;4.63;;;2.07;;
5153;SDS011;2595;53.584;10.084;2023-02-21T16:28:10;9.83;;;2.50;;
5153;SDS011;2595;53.584;10.084;2023-02-21T16:30:36;3.90;;;2.00;;
5153;SDS011;2595;53.584;10.084;2023-02-21T16:33:03;8.37;;;2.33;;
5153;SDS011;2595;53.584;10.084;2023-02-21T16:35:30;5.43;;;2.90;;
5153;SDS011;2595;53.584;10.084;2023-02-21T16:37:57;5.07;;;2.20;;
5153;SDS011;2595;53.584;10.084;2023-02-21T16:40:25;7.17;;;2.00;;
5153;SDS011;2595;53.584;10.084;2023-02-21T16:42:55;5.70;;;2.20;;
5153;SDS011;2595;53.584;10.084;2023-02-21T16:45:22;6.70;;;2.00;;
5153;SDS011;2595;53.584;10.084;2023-02-21T16:47:49;5.03;;;2.37;;
5153;SDS011;2595;53.584;10.084;2023-02-21T16:50:27;10.13;;;3.37;;
5153;SDS011;2595;53.584;10.084;2023-02-21T16:52:54;3.43;;;2.87;;
5153;SDS011;2595;53.584;10.084;2023-02-21T16:55:20;3.50;;;2.30;;
5153;SDS011;2595;53.584;10.084;2023-02-21T16:57:47;2.10;;;1.53;;
5153;SDS011;2595;53.584;10.084;2023-02-21T17:00:14;3.60;;;2.43;;
5153;SDS011;2595;53.584;10.084;2023-02-21T17:02:40;6.07;;;2.70;;
5153;SDS011;2595;53.584;10.084;2023-02-21T17:05:06;6.20;;;2.40;;
5153;SDS011;2595;53.584;10.084;2023-02-21T17:07:32;5.67;;;2.90;;
5153;SDS011;2595;53.584;10.084;2023-02-21T17:09:57;6.60;;;4.20;;
5153;SDS011;2595;53.584;10.084;2023-02-21T17:12:23;3.40;;;2.70;;
5153;SDS011;2595;53.584;10.084;2023-02-21T17:14:48;4.77;;;2.50;;
5153;SDS011;2595;53.584;10.084;2023-02-21T17:17:14;4.50;;;2.57;;
5153;SDS011;2595;53.584;10.084;2023-02-21T17:19:41;11.07;;;3.50;;
5153;SDS011;2595;53.584;10.084;2023-02-21T17:22:07;3.50;;;3.10;;
5153;SDS011;2595;53.584;10.084;2023-02-21T17:24:33;6.17;;;3.43;;
5153;SDS011;2595;53.584;10.084;2023-02-21T17:26:58;2.60;;;2.13;;
5153;SDS011;2595;53.584;10.084;2023-02-21T17:29:24;3.60;;;2.30;;
5153;SDS011;2595;53.584;10.084;2023-02-21T17:31:53;4.47;;;2.07;;
5153;SDS011;2595;53.584;10.084;2023-02-21T17:34:19;5.17;;;2.37;;
5153;SDS011;2595;53.584;10.084;2023-02-21T17:36:48;5.70;;;2.43;;
5153;SDS011;2595;53.584;10.084;2023-02-21T17:39:17;3.57;;;2.20;;
5153;SDS011;2595;53.584;10.084;2023-02-21T17:41:45;2.73;;;2.17;;
5153;SDS011;2595;53.584;10.084;2023-02-21T17:44:15;2.33;;;1.90;;
5153;SDS011;2595;53.584;10.084;2023-02-21T17:46:47;7.50;;;2.43;;
5153;SDS011;2595;53.584;10.084;2023-02-21T17:49:15;2.70;;;2.30;;
5153;SDS011;2595;53.584;10.084;2023-02-21T17:51:42;2.20;;;1.70;;
5153;SDS011;2595;53.584;10.084;2023-02-21T17:54:08;2.00;;;1.83;;
5153;SDS011;2595;53.584;10.084;2023-02-21T17:56:34;2.40;;;1.80;;
5153;SDS011;2595;53.584;10.084;2023-02-21T17:58:59;4.23;;;2.73;;
5153;SDS011;2595;53.584;10.084;2023-02-21T18:01:25;3.80;;;2.23;;
5153;SDS011;2595;53.584;10.084;2023-02-21T18:03:53;2.90;;;1.97;;
5153;SDS011;2595;53.584;10.084;2023-02-21T18:06:18;6.10;;;3.10;;
5153;SDS011;2595;53.584;10.084;2023-02-21T18:08:45;4.27;;;2.20;;
5153;SDS011;2595;53.584;10.084;2023-02-21T18:11:12;3.43;;;1.97;;
5153;SDS011;2595;53.584;10.084;2023-02-21T18:13:40;3.57;;;2.83;;
5153;SDS011;2595;53.584;10.084;2023-02-21T18:16:06;3.27;;;2.77;;
5153;SDS011;2595;53.584;10.084;2023-02-21T18:18:32;4.07;;;2.70;;